sensor_id;sensor_type;location;lat;lon;timestamp;pressure;altitude;pressure_sealevel;temperature
24586;BMP280;12743;52.262;6.172;2022-10-16T00:01:16;100479.75;;;12.31
24586;BMP280;12743;52.262;6.172;2022-10-16T00:03:42;100474.50;;;12.31
24586;BMP280;12743;52.262;6.172;2022-10-16T00:06:09;100474.72;;;12.26
24586;BMP280;12743;52.262;6.172;2022-10-16T00:08:35;100470.81;;;12.19
24586;BMP280;12743;52.262;6.172;2022-10-16T00:11:06;100427.59;;;11.89
24586;BMP280;12743;52.262;6.172;2022-10-16T00:13:33;100481.03;;;12.21
24586;BMP280;12743;52.262;6.172;2022-10-16T00:16:00;100487.81;;;12.22
24586;BMP280;12743;52.262;6.172;2022-10-16T00:18:26;100480.56;;;12.19
24586;BMP280;12743;52.262;6.172;2022-10-16T00:20:52;100480.19;;;12.17
24586;BMP280;12743;52.262;6.172;2022-10-16T00:23:18;100476.59;;;12.09
24586;BMP280;12743;52.262;6.172;2022-10-16T00:25:43;100495.53;;;12.15
24586;BMP280;12743;52.262;6.172;2022-10-16T00:28:08;100487.44;;;12.08
24586;BMP280;12743;52.262;6.172;2022-10-16T00:30:37;100491.38;;;12.14
24586;BMP280;12743;52.262;6.172;2022-10-16T00:33:03;100456.69;;;11.81
24586;BMP280;12743;52.262;6.172;2022-10-16T00:35:28;100490.25;;;11.99
24586;BMP280;12743;52.262;6.172;2022-10-16T00:37:54;100499.16;;;11.95
24586;BMP280;12743;52.262;6.172;2022-10-16T00:40:19;100486.34;;;11.93
24586;BMP280;12743;52.262;6.172;2022-10-16T00:42:44;100496.50;;;11.95
24586;BMP280;12743;52.262;6.172;2022-10-16T00:45:10;100493.81;;;11.91
24586;BMP280;12743;52.262;6.172;2022-10-16T00:47:41;100497.63;;;11.94
24586;BMP280;12743;52.262;6.172;2022-10-16T00:50:12;100495.00;;;11.94
24586;BMP280;12743;52.262;6.172;2022-10-16T00:52:42;100486.16;;;11.86
24586;BMP280;12743;52.262;6.172;2022-10-16T00:55:09;100492.69;;;11.92
24586;BMP280;12743;52.262;6.172;2022-10-16T00:57:36;100491.91;;;11.92
24586;BMP280;12743;52.262;6.172;2022-10-16T01:00:05;100487.34;;;11.89
24586;BMP280;12743;52.262;6.172;2022-10-16T01:02:31;100496.09;;;11.93
24586;BMP280;12743;52.262;6.172;2022-10-16T01:04:56;100488.34;;;11.84
24586;BMP280;12743;52.262;6.172;2022-10-16T01:10:35;100494.03;;;11.86
24586;BMP280;12743;52.262;6.172;2022-10-16T01:13:07;100493.63;;;11.84
24586;BMP280;12743;52.262;6.172;2022-10-16T01:15:34;100495.81;;;11.82
24586;BMP280;12743;52.262;6.172;2022-10-16T01:18:20;100492.41;;;11.82
24586;BMP280;12743;52.262;6.172;2022-10-16T01:20:54;100489.06;;;11.81
24586;BMP280;12743;52.262;6.172;2022-10-16T01:28:28;100495.06;;;11.82
24586;BMP280;12743;52.262;6.172;2022-10-16T01:30:58;100492.84;;;11.84
24586;BMP280;12743;52.262;6.172;2022-10-16T01:33:28;100493.53;;;11.81
24586;BMP280;12743;52.262;6.172;2022-10-16T01:35:59;100495.47;;;11.84
24586;BMP280;12743;52.262;6.172;2022-10-16T01:38:31;100495.91;;;11.86
24586;BMP280;12743;52.262;6.172;2022-10-16T01:41:04;100483.84;;;11.85
24586;BMP280;12743;52.262;6.172;2022-10-16T01:43:40;100489.22;;;11.88
24586;BMP280;12743;52.262;6.172;2022-10-16T01:46:08;100486.91;;;11.87
24586;BMP280;12743;52.262;6.172;2022-10-16T01:48:35;100485.38;;;11.86
24586;BMP280;12743;52.262;6.172;2022-10-16T01:51:07;100482.75;;;11.86
24586;BMP280;12743;52.262;6.172;2022-10-16T01:53:33;100488.34;;;11.84
24586;BMP280;12743;52.262;6.172;2022-10-16T01:56:00;100488.00;;;11.86
24586;BMP280;12743;52.262;6.172;2022-10-16T01:58:27;100479.81;;;11.87
24586;BMP280;12743;52.262;6.172;2022-10-16T02:00:56;100483.94;;;11.88
24586;BMP280;12743;52.262;6.172;2022-10-16T02:03:22;100481.56;;;11.83
24586;BMP280;12743;52.262;6.172;2022-10-16T02:05:55;100485.13;;;11.91
24586;BMP280;12743;52.262;6.172;2022-10-16T02:08:24;100485.25;;;11.94
24586;BMP280;12743;52.262;6.172;2022-10-16T02:10:51;100474.53;;;11.87
24586;BMP280;12743;52.262;6.172;2022-10-16T02:13:19;100495.31;;;11.92
24586;BMP280;12743;52.262;6.172;2022-10-16T02:15:47;100490.50;;;11.94
24586;BMP280;12743;52.262;6.172;2022-10-16T02:18:13;100475.19;;;11.84
24586;BMP280;12743;52.262;6.172;2022-10-16T02:24:13;100481.25;;;12.00
24586;BMP280;12743;52.262;6.172;2022-10-16T02:26:50;100492.22;;;12.02
24586;BMP280;12743;52.262;6.172;2022-10-16T02:29:22;100496.78;;;12.05
24586;BMP280;12743;52.262;6.172;2022-10-16T02:31:54;100496.78;;;12.05
24586;BMP280;12743;52.262;6.172;2022-10-16T02:34:21;100503.59;;;12.06
24586;BMP280;12743;52.262;6.172;2022-10-16T02:36:47;100498.31;;;12.06
24586;BMP280;12743;52.262;6.172;2022-10-16T02:39:14;100496.69;;;12.02
24586;BMP280;12743;52.262;6.172;2022-10-16T02:41:40;100482.50;;;11.91
24586;BMP280;12743;52.262;6.172;2022-10-16T02:44:05;100503.09;;;12.01
24586;BMP280;12743;52.262;6.172;2022-10-16T02:46:31;100510.31;;;12.04
24586;BMP280;12743;52.262;6.172;2022-10-16T02:48:56;100499.34;;;12.02
24586;BMP280;12743;52.262;6.172;2022-10-16T02:51:21;100496.78;;;12.05
24586;BMP280;12743;52.262;6.172;2022-10-16T02:53:47;100497.47;;;12.02
24586;BMP280;12743;52.262;6.172;2022-10-16T02:56:12;100502.75;;;12.02
24586;BMP280;12743;52.262;6.172;2022-10-16T02:58:37;100503.09;;;12.01
24586;BMP280;12743;52.262;6.172;2022-10-16T03:01:03;100504.16;;;12.00
24586;BMP280;12743;52.262;6.172;2022-10-16T03:03:28;100498.47;;;11.98
24586;BMP280;12743;52.262;6.172;2022-10-16T03:05:53;100504.50;;;11.98
24586;BMP280;12743;52.262;6.172;2022-10-16T03:08:19;100503.22;;;11.92
24586;BMP280;12743;52.262;6.172;2022-10-16T03:10:49;100526.66;;;11.97
24586;BMP280;12743;52.262;6.172;2022-10-16T03:13:14;100508.81;;;11.91
24586;BMP280;12743;52.262;6.172;2022-10-16T03:15:39;100525.91;;;11.97
24586;BMP280;12743;52.262;6.172;2022-10-16T03:18:05;100520.97;;;11.95
24586;BMP280;12743;52.262;6.172;2022-10-16T03:20:30;100517.25;;;11.96
24586;BMP280;12743;52.262;6.172;2022-10-16T03:22:55;100510.88;;;11.97
24586;BMP280;12743;52.262;6.172;2022-10-16T03:25:21;100506.03;;;11.99
24586;BMP280;12743;52.262;6.172;2022-10-16T03:27:46;100515.91;;;12.02
24586;BMP280;12743;52.262;6.172;2022-10-16T03:30:12;100519.69;;;12.05
24586;BMP280;12743;52.262;6.172;2022-10-16T03:32:37;100511.81;;;12.05
24586;BMP280;12743;52.262;6.172;2022-10-16T03:35:03;100512.06;;;12.00
24586;BMP280;12743;52.262;6.172;2022-10-16T03:37:28;100502.13;;;11.93
24586;BMP280;12743;52.262;6.172;2022-10-16T03:39:54;100517.06;;;12.05
24586;BMP280;12743;52.262;6.172;2022-10-16T03:42:20;100515.91;;;12.02
24586;BMP280;12743;52.262;6.172;2022-10-16T03:44:45;100505.94;;;11.96
24586;BMP280;12743;52.262;6.172;2022-10-16T03:47:10;100508.16;;;11.94
24586;BMP280;12743;52.262;6.172;2022-10-16T03:49:36;100514.63;;;11.96
24586;BMP280;12743;52.262;6.172;2022-10-16T03:52:01;100503.56;;;11.91
24586;BMP280;12743;52.262;6.172;2022-10-16T03:54:26;100514.19;;;11.94
24586;BMP280;12743;52.262;6.172;2022-10-16T03:56:52;100516.19;;;11.85
24586;BMP280;12743;52.262;6.172;2022-10-16T03:59:17;100520.03;;;11.88
24586;BMP280;12743;52.262;6.172;2022-10-16T04:01:42;100529.81;;;11.87
24586;BMP280;12743;52.262;6.172;2022-10-16T04:04:08;100529.09;;;11.90
24586;BMP280;12743;52.262;6.172;2022-10-16T04:06:33;100528.03;;;11.91
24586;BMP280;12743;52.262;6.172;2022-10-16T04:08:59;100528.75;;;11.92
24586;BMP280;12743;52.262;6.172;2022-10-16T04:11:24;100531.75;;;11.90
24586;BMP280;12743;52.262;6.172;2022-10-16T04:13:50;100525.31;;;11.88
24586;BMP280;12743;52.262;6.172;2022-10-16T04:16:15;100532.84;;;11.89
24586;BMP280;12743;52.262;6.172;2022-10-16T04:18:40;100531.31;;;11.88
24586;BMP280;12743;52.262;6.172;2022-10-16T04:21:06;100535.50;;;11.89
24586;BMP280;12743;52.262;6.172;2022-10-16T04:23:32;100545.78;;;11.94
24586;BMP280;12743;52.262;6.172;2022-10-16T04:25:57;100548.06;;;11.96
24586;BMP280;12743;52.262;6.172;2022-10-16T04:28:23;100552.44;;;11.92
24586;BMP280;12743;52.262;6.172;2022-10-16T04:30:48;100555.78;;;11.89
24586;BMP280;12743;52.262;6.172;2022-10-16T04:33:14;100556.88;;;11.88
24586;BMP280;12743;52.262;6.172;2022-10-16T04:35:39;100560.69;;;11.90
24586;BMP280;12743;52.262;6.172;2022-10-16T04:38:04;100560.84;;;11.82
24586;BMP280;12743;52.262;6.172;2022-10-16T04:40:30;100569.16;;;11.84
24586;BMP280;12743;52.262;6.172;2022-10-16T04:42:58;100545.97;;;11.74
24586;BMP280;12743;52.262;6.172;2022-10-16T04:45:24;100579.03;;;11.87
24586;BMP280;12743;52.262;6.172;2022-10-16T04:47:50;100573.25;;;11.81
24586;BMP280;12743;52.262;6.172;2022-10-16T04:50:15;100586.72;;;11.80
24586;BMP280;12743;52.262;6.172;2022-10-16T04:52:59;100574.44;;;11.72
24586;BMP280;12743;52.262;6.172;2022-10-16T04:55:25;100595.03;;;11.82
24586;BMP280;12743;52.262;6.172;2022-10-16T04:57:50;100592.06;;;11.83
24586;BMP280;12743;52.262;6.172;2022-10-16T05:00:15;100595.03;;;11.82
24586;BMP280;12743;52.262;6.172;2022-10-16T05:02:41;100591.97;;;11.80
24586;BMP280;12743;52.262;6.172;2022-10-16T05:05:06;100596.94;;;11.81
24586;BMP280;12743;52.262;6.172;2022-10-16T05:07:32;100597.13;;;11.76
24586;BMP280;12743;52.262;6.172;2022-10-16T05:09:57;100605.13;;;11.80
24586;BMP280;12743;52.262;6.172;2022-10-16T05:12:23;100600.19;;;11.78
24586;BMP280;12743;52.262;6.172;2022-10-16T05:14:48;100606.13;;;11.75
24586;BMP280;12743;52.262;6.172;2022-10-16T05:17:13;100611.41;;;11.75
24586;BMP280;12743;52.262;6.172;2022-10-16T05:19:39;100610.84;;;11.70
24586;BMP280;12743;52.262;6.172;2022-10-16T05:22:04;100605.19;;;11.68
24586;BMP280;12743;52.262;6.172;2022-10-16T05:24:30;100607.81;;;11.68
24586;BMP280;12743;52.262;6.172;2022-10-16T05:26:55;100622.59;;;11.72
24586;BMP280;12743;52.262;6.172;2022-10-16T05:29:21;100628.41;;;11.66
24586;BMP280;12743;52.262;6.172;2022-10-16T05:31:46;100631.38;;;11.64
24586;BMP280;12743;52.262;6.172;2022-10-16T05:34:11;100629.69;;;11.72
24586;BMP280;12743;52.262;6.172;2022-10-16T05:36:37;100626.56;;;11.66
24586;BMP280;12743;52.262;6.172;2022-10-16T05:39:02;100636.00;;;11.67
24586;BMP280;12743;52.262;6.172;2022-10-16T05:41:28;100596.81;;;11.38
24586;BMP280;12743;52.262;6.172;2022-10-16T05:43:53;100633.22;;;11.64
24586;BMP280;12743;52.262;6.172;2022-10-16T05:46:19;100639.13;;;11.73
24586;BMP280;12743;52.262;6.172;2022-10-16T05:48:44;100616.16;;;11.58
24586;BMP280;12743;52.262;6.172;2022-10-16T05:51:12;100641.66;;;11.69
24586;BMP280;12743;52.262;6.172;2022-10-16T05:53:39;100647.50;;;11.75
24586;BMP280;12743;52.262;6.172;2022-10-16T05:56:06;100627.91;;;11.48
24586;BMP280;12743;52.262;6.172;2022-10-16T05:58:34;100658.59;;;11.68
24586;BMP280;12743;52.262;6.172;2022-10-16T06:01:03;100613.88;;;11.44
24586;BMP280;12743;52.262;6.172;2022-10-16T06:03:28;100670.72;;;11.73
24586;BMP280;12743;52.262;6.172;2022-10-16T06:05:54;100644.63;;;11.56
24586;BMP280;12743;52.262;6.172;2022-10-16T06:08:21;100675.09;;;11.69
24586;BMP280;12743;52.262;6.172;2022-10-16T06:10:48;100687.94;;;11.70
24586;BMP280;12743;52.262;6.172;2022-10-16T06:13:14;100692.41;;;11.70
24586;BMP280;12743;52.262;6.172;2022-10-16T06:15:41;100699.13;;;11.67
24586;BMP280;12743;52.262;6.172;2022-10-16T06:18:10;100689.69;;;11.66
24586;BMP280;12743;52.262;6.172;2022-10-16T06:20:36;100692.19;;;11.63
24586;BMP280;12743;52.262;6.172;2022-10-16T06:23:02;100694.81;;;11.63
24586;BMP280;12743;52.262;6.172;2022-10-16T06:25:30;100704.69;;;11.66
24586;BMP280;12743;52.262;6.172;2022-10-16T06:27:55;100708.34;;;11.61
24586;BMP280;12743;52.262;6.172;2022-10-16T06:30:20;100703.09;;;11.61
24586;BMP280;12743;52.262;6.172;2022-10-16T06:32:46;100711.91;;;11.69
24586;BMP280;12743;52.262;6.172;2022-10-16T06:35:11;100720.38;;;11.74
24586;BMP280;12743;52.262;6.172;2022-10-16T06:37:36;100731.44;;;11.80
24586;BMP280;12743;52.262;6.172;2022-10-16T06:40:02;100714.34;;;11.74
24586;BMP280;12743;52.262;6.172;2022-10-16T06:42:29;100736.56;;;11.88
24586;BMP280;12743;52.262;6.172;2022-10-16T06:44:55;100679.59;;;11.56
24586;BMP280;12743;52.262;6.172;2022-10-16T06:47:21;100739.31;;;11.92
24586;BMP280;12743;52.262;6.172;2022-10-16T06:49:46;100744.38;;;11.97
24586;BMP280;12743;52.262;6.172;2022-10-16T06:52:11;100753.44;;;11.99
24586;BMP280;12743;52.262;6.172;2022-10-16T06:54:37;100758.06;;;12.02
24586;BMP280;12743;52.262;6.172;2022-10-16T06:57:02;100769.03;;;12.04
24586;BMP280;12743;52.262;6.172;2022-10-16T06:59:28;100772.78;;;12.03
24586;BMP280;12743;52.262;6.172;2022-10-16T07:01:53;100772.78;;;12.03
24586;BMP280;12743;52.262;6.172;2022-10-16T07:04:18;100773.84;;;12.02
24586;BMP280;12743;52.262;6.172;2022-10-16T07:06:44;100774.50;;;11.99
24586;BMP280;12743;52.262;6.172;2022-10-16T07:09:10;100785.69;;;12.08
24586;BMP280;12743;52.262;6.172;2022-10-16T07:11:37;100788.41;;;12.12
24586;BMP280;12743;52.262;6.172;2022-10-16T07:14:03;100794.13;;;12.14
24586;BMP280;12743;52.262;6.172;2022-10-16T07:16:31;100800.69;;;12.20
24586;BMP280;12743;52.262;6.172;2022-10-16T07:18:59;100806.19;;;12.27
24586;BMP280;12743;52.262;6.172;2022-10-16T07:21:30;100806.97;;;12.28
24586;BMP280;12743;52.262;6.172;2022-10-16T07:23:58;100813.72;;;12.41
24586;BMP280;12743;52.262;6.172;2022-10-16T07:26:25;100817.56;;;12.43
24586;BMP280;12743;52.262;6.172;2022-10-16T07:28:51;100833.03;;;12.45
24586;BMP280;12743;52.262;6.172;2022-10-16T07:31:18;100821.41;;;12.46
24586;BMP280;12743;52.262;6.172;2022-10-16T07:33:45;100827.53;;;12.50
24586;BMP280;12743;52.262;6.172;2022-10-16T07:36:13;100837.81;;;12.55
24586;BMP280;12743;52.262;6.172;2022-10-16T07:38:39;100826.69;;;12.46
24586;BMP280;12743;52.262;6.172;2022-10-16T07:41:06;100830.38;;;12.57
24586;BMP280;12743;52.262;6.172;2022-10-16T07:43:32;100843.56;;;12.57
24586;BMP280;12743;52.262;6.172;2022-10-16T07:45:58;100845.50;;;12.60
24586;BMP280;12743;52.262;6.172;2022-10-16T07:48:26;100846.06;;;12.65
24586;BMP280;12743;52.262;6.172;2022-10-16T07:50:52;100849.78;;;12.64
24586;BMP280;12743;52.262;6.172;2022-10-16T07:53:17;100842.53;;;12.61
24586;BMP280;12743;52.262;6.172;2022-10-16T07:55:42;100857.19;;;12.74
24586;BMP280;12743;52.262;6.172;2022-10-16T07:58:08;100832.25;;;12.56
24586;BMP280;12743;52.262;6.172;2022-10-16T08:00:34;100854.47;;;12.71
24586;BMP280;12743;52.262;6.172;2022-10-16T08:03:00;100874.56;;;12.75
24586;BMP280;12743;52.262;6.172;2022-10-16T08:05:27;100863.78;;;12.80
24586;BMP280;12743;52.262;6.172;2022-10-16T08:07:55;100866.19;;;12.85
24586;BMP280;12743;52.262;6.172;2022-10-16T08:10:23;100856.81;;;12.88
24586;BMP280;12743;52.262;6.172;2022-10-16T08:12:48;100859.16;;;12.89
24586;BMP280;12743;52.262;6.172;2022-10-16T08:15:14;100858.50;;;12.92
24586;BMP280;12743;52.262;6.172;2022-10-16T08:17:39;100861.22;;;12.96
24586;BMP280;12743;52.262;6.172;2022-10-16T08:20:05;100856.78;;;13.00
24586;BMP280;12743;52.262;6.172;2022-10-16T08:22:30;100876.06;;;13.16
24586;BMP280;12743;52.262;6.172;2022-10-16T08:24:56;100874.38;;;13.24
24586;BMP280;12743;52.262;6.172;2022-10-16T08:27:21;100871.81;;;13.27
24586;BMP280;12743;52.262;6.172;2022-10-16T08:29:48;100891.25;;;13.35
24586;BMP280;12743;52.262;6.172;2022-10-16T08:32:14;100888.75;;;13.26
24586;BMP280;12743;52.262;6.172;2022-10-16T08:34:39;100902.63;;;13.23
24586;BMP280;12743;52.262;6.172;2022-10-16T08:37:04;100905.28;;;13.23
24586;BMP280;12743;52.262;6.172;2022-10-16T08:39:30;100903.72;;;13.22
24586;BMP280;12743;52.262;6.172;2022-10-16T08:45:19;100915.03;;;13.66
24586;BMP280;12743;52.262;6.172;2022-10-16T08:50:30;100911.44;;;13.90
24586;BMP280;12743;52.262;6.172;2022-10-16T08:52:57;100913.50;;;13.96
24586;BMP280;12743;52.262;6.172;2022-10-16T08:55:52;100925.06;;;14.07
24586;BMP280;12743;52.262;6.172;2022-10-16T08:58:20;100925.00;;;14.19
24586;BMP280;12743;52.262;6.172;2022-10-16T09:00:49;100901.56;;;14.18
24586;BMP280;12743;52.262;6.172;2022-10-16T09:11:16;100938.75;;;14.44
24586;BMP280;12743;52.262;6.172;2022-10-16T09:16:50;100973.66;;;14.69
24586;BMP280;12743;52.262;6.172;2022-10-16T09:19:25;100968.03;;;14.70
24586;BMP280;12743;52.262;6.172;2022-10-16T09:21:53;100974.16;;;14.74
24586;BMP280;12743;52.262;6.172;2022-10-16T09:24:24;100974.94;;;14.59
24586;BMP280;12743;52.262;6.172;2022-10-16T09:26:50;100991.00;;;14.85
24586;BMP280;12743;52.262;6.172;2022-10-16T09:29:18;100981.75;;;14.95
24586;BMP280;12743;52.262;6.172;2022-10-16T09:31:47;100989.16;;;15.05
24586;BMP280;12743;52.262;6.172;2022-10-16T09:36:51;100988.09;;;15.09
24586;BMP280;12743;52.262;6.172;2022-10-16T09:39:16;100997.78;;;15.21
24586;BMP280;12743;52.262;6.172;2022-10-16T09:41:44;100995.38;;;15.35
24586;BMP280;12743;52.262;6.172;2022-10-16T09:44:39;100996.28;;;15.23
24586;BMP280;12743;52.262;6.172;2022-10-16T09:47:12;100998.31;;;15.30
24586;BMP280;12743;52.262;6.172;2022-10-16T09:49:50;101001.16;;;15.41
24586;BMP280;12743;52.262;6.172;2022-10-16T09:52:19;101002.06;;;15.48
24586;BMP280;12743;52.262;6.172;2022-10-16T09:54:59;101005.78;;;15.44
24586;BMP280;12743;52.262;6.172;2022-10-16T09:57:26;101001.56;;;15.43
24586;BMP280;12743;52.262;6.172;2022-10-16T09:59:53;101014.72;;;15.58
24586;BMP280;12743;52.262;6.172;2022-10-16T10:02:39;101015.81;;;15.76
24586;BMP280;12743;52.262;6.172;2022-10-16T10:05:06;101020.00;;;15.77
24586;BMP280;12743;52.262;6.172;2022-10-16T10:07:43;101022.13;;;15.91
24586;BMP280;12743;52.262;6.172;2022-10-16T10:10:32;101013.34;;;15.87
24586;BMP280;12743;52.262;6.172;2022-10-16T10:12:58;101013.84;;;15.96
24586;BMP280;12743;52.262;6.172;2022-10-16T10:15:24;101009.59;;;15.91
24586;BMP280;12743;52.262;6.172;2022-10-16T10:17:56;101020.78;;;15.81
24586;BMP280;12743;52.262;6.172;2022-10-16T10:20:33;101024.50;;;15.99
24586;BMP280;12743;52.262;6.172;2022-10-16T10:23:01;101028.81;;;16.07
24586;BMP280;12743;52.262;6.172;2022-10-16T10:25:49;101027.63;;;16.05
24586;BMP280;12743;52.262;6.172;2022-10-16T10:28:46;101028.78;;;16.04
24586;BMP280;12743;52.262;6.172;2022-10-16T10:33:58;101034.16;;;16.11
24586;BMP280;12743;52.262;6.172;2022-10-16T10:36:36;101031.22;;;16.16
24586;BMP280;12743;52.262;6.172;2022-10-16T10:39:15;101037.25;;;16.13
24586;BMP280;12743;52.262;6.172;2022-10-16T10:42:00;101044.47;;;16.16
24586;BMP280;12743;52.262;6.172;2022-10-16T10:47:36;101055.25;;;16.27
24586;BMP280;12743;52.262;6.172;2022-10-16T10:55:44;101052.94;;;16.02
24586;BMP280;12743;52.262;6.172;2022-10-16T11:01:08;101061.97;;;16.21
24586;BMP280;12743;52.262;6.172;2022-10-16T11:03:56;101058.78;;;16.11
24586;BMP280;12743;52.262;6.172;2022-10-16T11:06:26;101061.69;;;16.03
24586;BMP280;12743;52.262;6.172;2022-10-16T11:08:59;101043.06;;;15.99
24586;BMP280;12743;52.262;6.172;2022-10-16T11:11:32;101048.75;;;16.01
24586;BMP280;12743;52.262;6.172;2022-10-16T11:14:08;101050.50;;;16.13
24586;BMP280;12743;52.262;6.172;2022-10-16T11:16:43;101060.63;;;16.30
24586;BMP280;12743;52.262;6.172;2022-10-16T11:19:14;101062.19;;;16.35
24586;BMP280;12743;52.262;6.172;2022-10-16T11:21:46;101069.41;;;16.38
24586;BMP280;12743;52.262;6.172;2022-10-16T11:24:20;101066.22;;;16.51
24586;BMP280;12743;52.262;6.172;2022-10-16T11:26:49;101072.66;;;16.50
24586;BMP280;12743;52.262;6.172;2022-10-16T11:29:22;101082.44;;;16.46
24586;BMP280;12743;52.262;6.172;2022-10-16T11:31:53;101076.91;;;16.32
24586;BMP280;12743;52.262;6.172;2022-10-16T11:34:35;101085.06;;;16.20
24586;BMP280;12743;52.262;6.172;2022-10-16T11:39:32;101044.34;;;15.86
24586;BMP280;12743;52.262;6.172;2022-10-16T11:42:08;101085.22;;;16.08
24586;BMP280;12743;52.262;6.172;2022-10-16T11:45:02;101084.34;;;16.00
24586;BMP280;12743;52.262;6.172;2022-10-16T11:47:51;101097.38;;;15.90
24586;BMP280;12743;52.262;6.172;2022-10-16T11:50:34;101088.75;;;15.93
24586;BMP280;12743;52.262;6.172;2022-10-16T11:55:54;101086.09;;;16.15
24586;BMP280;12743;52.262;6.172;2022-10-16T12:01:31;101071.91;;;16.27
24586;BMP280;12743;52.262;6.172;2022-10-16T12:04:11;101075.22;;;16.21
24586;BMP280;12743;52.262;6.172;2022-10-16T12:07:14;101100.25;;;16.46
24586;BMP280;12743;52.262;6.172;2022-10-16T12:09:40;101098.91;;;16.59
24586;BMP280;12743;52.262;6.172;2022-10-16T12:12:38;101094.53;;;16.70
24586;BMP280;12743;52.262;6.172;2022-10-16T12:15:39;101099.94;;;16.77
24586;BMP280;12743;52.262;6.172;2022-10-16T12:18:07;101101.59;;;16.88
24586;BMP280;12743;52.262;6.172;2022-10-16T12:20:54;101109.88;;;16.83
24586;BMP280;12743;52.262;6.172;2022-10-16T12:23:24;101114.22;;;16.69
24586;BMP280;12743;52.262;6.172;2022-10-16T12:25:55;101111.50;;;16.65
24586;BMP280;12743;52.262;6.172;2022-10-16T12:28:25;101119.25;;;16.77
24586;BMP280;12743;52.262;6.172;2022-10-16T12:30:54;101118.63;;;16.87
24586;BMP280;12743;52.262;6.172;2022-10-16T12:33:24;101127.97;;;17.04
24586;BMP280;12743;52.262;6.172;2022-10-16T12:35:50;101129.84;;;17.03
24586;BMP280;12743;52.262;6.172;2022-10-16T12:38:21;101132.00;;;16.94
24586;BMP280;12743;52.262;6.172;2022-10-16T12:41:04;101131.25;;;16.94
24586;BMP280;12743;52.262;6.172;2022-10-16T12:43:43;101128.44;;;17.10
24586;BMP280;12743;52.262;6.172;2022-10-16T12:48:35;101132.34;;;17.19
24586;BMP280;12743;52.262;6.172;2022-10-16T12:51:36;101126.50;;;17.36
24586;BMP280;12743;52.262;6.172;2022-10-16T12:54:37;101143.38;;;17.21
24586;BMP280;12743;52.262;6.172;2022-10-16T12:57:34;101144.66;;;17.05
24586;BMP280;12743;52.262;6.172;2022-10-16T13:02:53;101088.03;;;16.67
24586;BMP280;12743;52.262;6.172;2022-10-16T13:08:54;101150.41;;;16.84
24586;BMP280;12743;52.262;6.172;2022-10-16T13:19:56;101125.91;;;17.20
24586;BMP280;12743;52.262;6.172;2022-10-16T13:25:21;101144.94;;;17.55
24586;BMP280;12743;52.262;6.172;2022-10-16T13:28:06;101145.78;;;17.66
24586;BMP280;12743;52.262;6.172;2022-10-16T13:30:43;101146.56;;;17.67
24586;BMP280;12743;52.262;6.172;2022-10-16T13:33:30;101149.03;;;17.49
24586;BMP280;12743;52.262;6.172;2022-10-16T13:35:57;101150.94;;;17.19
24586;BMP280;12743;52.262;6.172;2022-10-16T13:38:25;101154.16;;;17.06
24586;BMP280;12743;52.262;6.172;2022-10-16T13:43:26;101154.31;;;17.16
24586;BMP280;12743;52.262;6.172;2022-10-16T13:45:57;101146.88;;;17.29
24586;BMP280;12743;52.262;6.172;2022-10-16T13:48:23;101133.78;;;17.13
24586;BMP280;12743;52.262;6.172;2022-10-16T13:51:15;101158.31;;;17.33
24586;BMP280;12743;52.262;6.172;2022-10-16T13:53:41;101161.13;;;17.17
24586;BMP280;12743;52.262;6.172;2022-10-16T13:56:10;101166.19;;;17.26
24586;BMP280;12743;52.262;6.172;2022-10-16T13:58:36;101170.16;;;17.39
24586;BMP280;12743;52.262;6.172;2022-10-16T14:01:24;101176.38;;;17.53
24586;BMP280;12743;52.262;6.172;2022-10-16T14:03:50;101168.25;;;17.39
24586;BMP280;12743;52.262;6.172;2022-10-16T14:06:18;101167.00;;;17.30
24586;BMP280;12743;52.262;6.172;2022-10-16T14:08:46;101162.66;;;17.18
24586;BMP280;12743;52.262;6.172;2022-10-16T14:11:21;101154.38;;;17.20
24586;BMP280;12743;52.262;6.172;2022-10-16T14:13:47;101155.91;;;17.24
24586;BMP280;12743;52.262;6.172;2022-10-16T14:16:19;101167.28;;;17.21
24586;BMP280;12743;52.262;6.172;2022-10-16T14:18:57;101154.66;;;17.15
24586;BMP280;12743;52.262;6.172;2022-10-16T14:21:24;101174.88;;;17.23
24586;BMP280;12743;52.262;6.172;2022-10-16T14:23:52;101169.03;;;17.14
24586;BMP280;12743;52.262;6.172;2022-10-16T14:26:20;101183.19;;;16.95
24586;BMP280;12743;52.262;6.172;2022-10-16T14:28:46;101168.53;;;17.05
24586;BMP280;12743;52.262;6.172;2022-10-16T14:31:32;101181.28;;;16.92
24586;BMP280;12743;52.262;6.172;2022-10-16T14:33:59;101193.47;;;16.96
24586;BMP280;12743;52.262;6.172;2022-10-16T14:36:26;101193.09;;;16.98
24586;BMP280;12743;52.262;6.172;2022-10-16T14:39:04;101189.53;;;16.87
24586;BMP280;12743;52.262;6.172;2022-10-16T14:41:41;101178.03;;;16.79
24586;BMP280;12743;52.262;6.172;2022-10-16T14:44:12;101187.06;;;16.75
24586;BMP280;12743;52.262;6.172;2022-10-16T14:46:39;101139.63;;;16.47
24586;BMP280;12743;52.262;6.172;2022-10-16T14:51:34;101172.28;;;16.51
24586;BMP280;12743;52.262;6.172;2022-10-16T14:54:00;101183.59;;;16.71
24586;BMP280;12743;52.262;6.172;2022-10-16T14:59:12;101185.53;;;16.74
24586;BMP280;12743;52.262;6.172;2022-10-16T15:01:38;101187.00;;;16.71
24586;BMP280;12743;52.262;6.172;2022-10-16T15:04:04;101157.44;;;16.47
24586;BMP280;12743;52.262;6.172;2022-10-16T15:06:29;101180.81;;;16.64
24586;BMP280;12743;52.262;6.172;2022-10-16T15:08:54;101189.03;;;16.55
24586;BMP280;12743;52.262;6.172;2022-10-16T15:11:20;101193.50;;;16.51
24586;BMP280;12743;52.262;6.172;2022-10-16T15:13:45;101198.34;;;16.46
24586;BMP280;12743;52.262;6.172;2022-10-16T15:16:13;101204.56;;;16.34
24586;BMP280;12743;52.262;6.172;2022-10-16T15:18:39;101183.19;;;16.24
24586;BMP280;12743;52.262;6.172;2022-10-16T15:21:04;101190.78;;;16.25
24586;BMP280;12743;52.262;6.172;2022-10-16T15:23:30;101192.09;;;16.15
24586;BMP280;12743;52.262;6.172;2022-10-16T15:25:56;101194.38;;;16.13
24586;BMP280;12743;52.262;6.172;2022-10-16T15:28:23;101193.34;;;16.22
24586;BMP280;12743;52.262;6.172;2022-10-16T15:30:50;101185.41;;;16.22